CheckWX is a tool to help pilots better visualize weather data.  It is not intended as a substitute for an official pre-flight weather briefing.

17:30:27 UTC

KSFB TAF
Orlando Sanford International Airport
Orlando, Florida, USA
KSFB 191124Z 1912/2012 03008KT P6SM VCSH SCT040 BKN060 FM191400 06012G18KT P6SM VCSH SCT040 BKN060 FM191800 07015G22KT P6SM BKN050 FM200000 05008KT P6SM FEW030 SCT050

Sep-19@
12:00 UTC

Sep-19 @ 12:00 UTC

Sep-19@
14:00 UTC

Sep-19 @ 14:00 UTC

KSFB 191124Z 1912/2012 03008KT P6SM VCSH SCT040 BKN060

Expired

Wind
  • 030° at 8 KTS
Cloud Levels
  • Scattered at 4,000' AGL
  • Broken at 6,000' AGL

Sep-19@
14:00 UTC

Sep-19 @ 14:00 UTC

Sep-19@
18:00 UTC

Sep-19 @ 18:00 UTC

FM191400 06012G18KT P6SM VCSH SCT040 BKN060

From

From Standard forecast or significant change

Wind
  • 060° at 12 KTS
  • {Gusting to 18 KTS
Cloud Levels
  • Scattered at 4,000' AGL
  • Broken at 6,000' AGL

Sep-19@
18:00 UTC

Sep-19 @ 18:00 UTC

Sep-20@
00:00 UTC

Sep-20 @ 00:00 UTC

FM191800 07015G22KT P6SM BKN050

From

From Standard forecast or significant change

Wind
  • 070° at 15 KTS
  • {Gusting to 22 KTS
Cloud Levels
  • Broken at 5,000' AGL

Sep-20@
00:00 UTC

Sep-20 @ 00:00 UTC

Sep-20@
12:00 UTC

Sep-20 @ 12:00 UTC

FM200000 05008KT P6SM FEW030 SCT050

From

From Standard forecast or significant change

Wind
  • 050° at 8 KTS
Cloud Levels
  • Few at 3,000' AGL
  • Scattered at 5,000' AGL